Time;durP1;ratioP1;P1;durP2;ratioP2;P2;SDS_P1;SDS_P2;PMS_P1;PMS_P2;Temp;Humidity;BMP_temperature;BMP_pressure;BME280_temperature;BME280_humidity;BME280_pressure;Samples;Min_cycle;Max_cycle;Signal;HPM_P1;HPM_P2
2022/06/11 00:00:56;;;;;;;;;;;;;;;17.86;nan;99920.97;4958881;28;20013;-72
2022/06/11 00:03:22;;;;;;;;;;;;;;;17.65;nan;99910.16;4965279;28;20342;-72
2022/06/11 00:05:47;;;;;;;;;;;;;;;17.56;nan;99910.16;4963162;28;20205;-72
2022/06/11 00:08:13;;;;;;;;;;;;;;;17.64;nan;99908.47;4963128;28;19914;-72
2022/06/11 00:10:39;;;;;;;;;;;;;;;17.68;nan;99909.78;4963433;28;19962;-72
2022/06/11 00:13:04;;;;;;;;;;;;;;;17.72;nan;99908.44;4964041;28;19965;-73
2022/06/11 00:15:30;;;;;;;;;;;;;;;17.75;nan;99916.06;4962636;28;19921;-73
2022/06/11 00:17:57;;;;;;;;;;;;;;;17.73;nan;99912.75;4964510;28;19964;-72
2022/06/11 00:20:23;;;;;;;;;;;;;;;17.79;nan;99910.16;4962001;28;19918;-71
2022/06/11 00:22:49;;;;;;;;;;;;;;;17.81;nan;99907.34;4964810;28;19926;-71
2022/06/11 00:25:14;;;;;;;;;;;;;;;17.80;nan;99908.34;4962738;28;19924;-71
2022/06/11 00:27:39;;;;;;;;;;;;;;;17.82;nan;99909.81;4961804;28;19918;-70
2022/06/11 00:30:06;;;;;;;;;;;;;;;17.93;nan;99908.56;4963139;28;19965;-72
2022/06/11 00:32:31;;;;;;;;;;;;;;;18.02;nan;99899.47;4961320;28;19922;-72
2022/06/11 00:35:02;;;;;;;;;;;;;;;18.10;nan;99910.06;4964301;28;19925;-72
2022/06/11 00:37:27;;;;;;;;;;;;;;;18.18;nan;99915.31;4957683;28;19976;-72
2022/06/11 00:39:53;;;;;;;;;;;;;;;18.22;nan;99913.94;4964583;28;19949;-72
2022/06/11 00:42:21;;;;;;;;;;;;;;;18.18;nan;99906.47;4961023;28;20318;-71
2022/06/11 00:44:47;;;;;;;;;;;;;;;18.05;nan;99915.13;4963441;28;20335;-72
2022/06/11 00:47:12;;;;;;;;;;;;;;;17.99;nan;99910.50;4961878;28;19990;-72
2022/06/11 00:49:38;;;;;;;;;;;;;;;17.91;nan;99918.56;4962424;28;19977;-72
2022/06/11 00:52:22;;;;;;;;;;;;;;;17.84;nan;99923.00;4960083;28;19925;-73
2022/06/11 00:54:52;;;;;;;;;;;;;;;17.79;nan;99925.38;4961923;28;20433;-72
2022/06/11 00:57:18;;;;;;;;;;;;;;;17.83;nan;99924.84;4962299;28;19922;-72
2022/06/11 00:59:48;;;;;;;;;;;;;;;17.75;nan;99924.06;4958601;28;19928;-72
2022/06/11 01:02:13;;;;;;;;;;;;;;;17.53;nan;99926.56;4960194;28;19938;-72
2022/06/11 01:04:41;;;;;;;;;;;;;;;17.24;nan;99925.59;4961816;28;19926;-73
2022/06/11 01:07:13;;;;;;;;;;;;;;;17.04;nan;99919.88;4961805;28;19973;-72
2022/06/11 01:09:45;;;;;;;;;;;;;;;16.96;nan;99922.59;4963371;28;20016;-72
2022/06/11 01:12:16;;;;;;;;;;;;;;;17.02;nan;99917.38;4962395;28;20282;-73
2022/06/11 01:14:47;;;;;;;;;;;;;;;17.08;nan;99915.88;4962296;28;19918;-71
2022/06/11 01:17:19;;;;;;;;;;;;;;;16.99;nan;99914.22;4962107;28;19925;-72
2022/06/11 01:19:44;;;;;;;;;;;;;;;16.83;nan;99919.66;4962661;28;20362;-71
2022/06/11 01:22:16;;;;;;;;;;;;;;;16.75;nan;99916.03;4962221;28;19942;-72
2022/06/11 01:24:55;;;;;;;;;;;;;;;16.66;nan;99906.41;4962881;28;19918;-71
2022/06/11 01:27:52;;;;;;;;;;;;;;;16.71;nan;99914.72;4963909;28;19925;-71
2022/06/11 01:30:21;;;;;;;;;;;;;;;16.69;nan;99921.22;4972758;28;20689;-73
2022/06/11 01:33:01;;;;;;;;;;;;;;;16.75;nan;99917.84;4961948;28;19918;-73
2022/06/11 01:35:42;;;;;;;;;;;;;;;16.68;nan;99923.03;4964538;28;19918;-72
2022/06/11 01:38:16;;;;;;;;;;;;;;;16.63;nan;99922.72;4974909;28;19953;-73
2022/06/11 01:41:08;;;;;;;;;;;;;;;16.57;nan;99920.72;4962442;28;19918;-72
2022/06/11 01:43:37;;;;;;;;;;;;;;;16.64;nan;99928.88;4962465;28;19924;-73
2022/06/11 01:46:04;;;;;;;;;;;;;;;16.78;nan;99928.19;4960894;28;19918;-73
2022/06/11 01:48:30;;;;;;;;;;;;;;;16.91;nan;99924.94;4963120;28;20009;-73
2022/06/11 01:51:06;;;;;;;;;;;;;;;16.91;nan;99927.59;4960021;28;19945;-73
2022/06/11 01:53:37;;;;;;;;;;;;;;;16.88;nan;99926.13;4956605;28;19918;-73
2022/06/11 01:56:03;;;;;;;;;;;;;;;16.79;nan;99927.97;4962244;28;19918;-73
2022/06/11 01:58:38;;;;;;;;;;;;;;;16.81;nan;99929.66;4961103;28;19922;-71
2022/06/11 02:01:22;;;;;;;;;;;;;;;16.52;nan;99939.06;4959957;28;19918;-72
2022/06/11 02:03:52;;;;;;;;;;;;;;;16.36;nan;99936.44;4960358;28;19918;-72
2022/06/11 02:06:31;;;;;;;;;;;;;;;16.34;nan;99938.44;4962032;28;19944;-72
2022/06/11 02:08:56;;;;;;;;;;;;;;;16.35;nan;99929.47;4971336;28;19989;-72
2022/06/11 02:11:33;;;;;;;;;;;;;;;16.48;nan;99928.91;4962877;28;20290;-72
2022/06/11 02:14:03;;;;;;;;;;;;;;;16.58;nan;99930.38;4971089;28;19950;-72
2022/06/11 02:16:32;;;;;;;;;;;;;;;16.68;nan;99936.38;4962756;28;19979;-73
2022/06/11 02:18:59;;;;;;;;;;;;;;;16.69;nan;99932.69;4959176;28;19957;-73
2022/06/11 02:21:27;;;;;;;;;;;;;;;16.71;nan;99920.03;4962996;28;20382;-72
2022/06/11 02:23:57;;;;;;;;;;;;;;;16.75;nan;99933.84;4959880;28;19961;-72
2022/06/11 02:26:28;;;;;;;;;;;;;;;16.78;nan;99925.50;4962679;28;19926;-73
2022/06/11 02:28:54;;;;;;;;;;;;;;;16.79;nan;99930.66;4959728;28;19918;-73
2022/06/11 02:31:23;;;;;;;;;;;;;;;16.78;nan;99929.00;4962285;28;19918;-72
2022/06/11 02:33:49;;;;;;;;;;;;;;;16.78;nan;99929.00;4961437;28;20426;-72
2022/06/11 02:36:20;;;;;;;;;;;;;;;16.63;nan;99933.38;4965070;28;19929;-71
2022/06/11 02:38:46;;;;;;;;;;;;;;;16.57;nan;99939.38;4995695;28;19918;-72
2022/06/11 02:41:15;;;;;;;;;;;;;;;16.57;nan;99938.53;4964798;28;19965;-73
2022/06/11 02:43:40;;;;;;;;;;;;;;;16.57;nan;99936.72;4965072;28;19917;-73
2022/06/11 02:48:51;;;;;;;;;;;;;;;16.35;nan;99943.59;4963335;28;19958;-73
2022/06/11 02:51:18;;;;;;;;;;;;;;;16.29;nan;99940.78;4965426;28;19982;-72
2022/06/11 02:53:43;;;;;;;;;;;;;;;16.27;nan;99942.78;4964752;28;19925;-72
2022/06/11 02:56:08;;;;;;;;;;;;;;;16.18;nan;99939.31;4963926;28;19922;-73
2022/06/11 02:58:34;;;;;;;;;;;;;;;16.00;nan;99937.84;4965295;28;19944;-72
2022/06/11 03:00:59;;;;;;;;;;;;;;;15.96;nan;99946.16;4962873;28;19922;-72
2022/06/11 03:03:24;;;;;;;;;;;;;;;15.88;nan;99938.19;4965561;28;19917;-73
2022/06/11 03:05:50;;;;;;;;;;;;;;;15.73;nan;99945.16;4995442;28;19925;-71
2022/06/11 03:08:15;;;;;;;;;;;;;;;15.40;nan;99944.28;4964299;28;19918;-72
2022/06/11 03:10:44;;;;;;;;;;;;;;;15.25;nan;99945.09;4964179;28;20274;-72
2022/06/11 03:13:09;;;;;;;;;;;;;;;15.08;nan;99945.03;4965055;28;19921;-72
2022/06/11 03:15:35;;;;;;;;;;;;;;;14.86;nan;99956.25;4964288;28;19965;-72
2022/06/11 03:18:00;;;;;;;;;;;;;;;14.69;nan;99954.53;4966125;28;19925;-71
2022/06/11 03:20:27;;;;;;;;;;;;;;;14.73;nan;99955.88;4962897;28;20582;-73
2022/06/11 03:22:53;;;;;;;;;;;;;;;14.91;nan;99950.47;4966415;28;19925;-72
2022/06/11 03:25:24;;;;;;;;;;;;;;;14.91;nan;99956.63;4963314;28;20022;-72
2022/06/11 03:27:50;;;;;;;;;;;;;;;15.10;nan;99960.84;4965691;28;19980;-72
2022/06/11 03:30:16;;;;;;;;;;;;;;;15.18;nan;99965.34;4962663;28;19953;-72
2022/06/11 03:32:41;;;;;;;;;;;;;;;15.14;nan;99965.66;4964745;28;19923;-71
2022/06/11 03:35:07;;;;;;;;;;;;;;;15.22;nan;99961.34;4963899;28;20374;-73
2022/06/11 03:37:33;;;;;;;;;;;;;;;15.30;nan;99962.22;4962416;28;19925;-72
2022/06/11 03:39:59;;;;;;;;;;;;;;;15.35;nan;99967.03;4965376;28;20020;-72
2022/06/11 03:42:24;;;;;;;;;;;;;;;15.38;nan;99967.53;4962687;28;20272;-73
2022/06/11 03:44:50;;;;;;;;;;;;;;;15.41;nan;99971.72;4964987;28;19924;-72
2022/06/11 03:47:15;;;;;;;;;;;;;;;15.30;nan;99964.88;4963525;28;19925;-72
2022/06/11 03:49:41;;;;;;;;;;;;;;;15.23;nan;99984.28;4962774;28;19919;-72
2022/06/11 03:52:06;;;;;;;;;;;;;;;15.19;nan;99982.97;4964099;28;19926;-72
2022/06/11 03:54:32;;;;;;;;;;;;;;;15.18;nan;99981.28;4962889;28;20290;-72
2022/06/11 03:56:57;;;;;;;;;;;;;;;15.12;nan;99978.28;4965640;28;19925;-72
2022/06/11 03:59:23;;;;;;;;;;;;;;;15.06;nan;99978.09;4962451;28;19923;-72
2022/06/11 04:01:48;;;;;;;;;;;;;;;15.00;nan;99976.94;4964887;28;19928;-72
2022/06/11 04:04:19;;;;;;;;;;;;;;;14.97;nan;99985.19;4963561;28;20400;-72
2022/06/11 04:06:49;;;;;;;;;;;;;;;15.00;nan;99990.22;4964023;28;20274;-72
2022/06/11 04:09:20;;;;;;;;;;;;;;;14.93;nan;99991.00;4963180;28;19941;-71
2022/06/11 04:11:45;;;;;;;;;;;;;;;14.79;nan;99996.91;4964610;28;19940;-72
2022/06/11 04:14:11;;;;;;;;;;;;;;;14.89;nan;99994.97;4963820;28;20429;-73
2022/06/11 04:16:40;;;;;;;;;;;;;;;14.94;nan;99996.16;4963235;28;19918;-73
2022/06/11 04:19:07;;;;;;;;;;;;;;;14.89;nan;99993.16;4964197;28;19922;-73
2022/06/11 04:21:33;;;;;;;;;;;;;;;14.90;nan;99997.50;4962128;28;19915;-73
2022/06/11 04:23:59;;;;;;;;;;;;;;;15.03;nan;99994.34;4965128;28;19945;-73
2022/06/11 04:26:29;;;;;;;;;;;;;;;15.05;nan;99998.53;4962162;28;19957;-73
2022/06/11 04:28:55;;;;;;;;;;;;;;;15.16;nan;100010.69;4965223;28;19918;-72
2022/06/11 04:31:20;;;;;;;;;;;;;;;15.18;nan;100014.03;4962329;28;19933;-74
2022/06/11 04:33:49;;;;;;;;;;;;;;;15.28;nan;100014.72;4964211;28;19914;-72
2022/06/11 04:36:16;;;;;;;;;;;;;;;15.23;nan;100013.53;4962355;28;20028;-72
2022/06/11 04:38:42;;;;;;;;;;;;;;;15.20;nan;100011.22;4961931;28;20287;-72
2022/06/11 04:41:08;;;;;;;;;;;;;;;15.29;nan;100015.56;4962992;28;19918;-73
2022/06/11 04:43:34;;;;;;;;;;;;;;;15.41;nan;100016.91;4961975;28;19918;-72
2022/06/11 04:45:59;;;;;;;;;;;;;;;15.56;nan;100002.84;4964222;28;19929;-73
2022/06/11 04:48:24;;;;;;;;;;;;;;;15.69;nan;100002.38;4961171;28;19918;-72
2022/06/11 04:50:50;;;;;;;;;;;;;;;15.83;nan;100014.19;4963927;28;20086;-72
2022/06/11 04:53:15;;;;;;;;;;;;;;;15.74;nan;100009.84;4956722;28;19974;-72
2022/06/11 04:55:41;;;;;;;;;;;;;;;15.79;nan;100013.69;4954991;28;20379;-71
2022/06/11 04:58:06;;;;;;;;;;;;;;;15.64;nan;100015.34;4957476;28;19973;-72
2022/06/11 05:00:32;;;;;;;;;;;;;;;15.51;nan;100014.94;4958870;28;19918;-72
2022/06/11 05:02:58;;;;;;;;;;;;;;;15.47;nan;100018.94;4957258;28;20293;-71
2022/06/11 05:05:23;;;;;;;;;;;;;;;15.67;nan;100016.84;4958036;28;19918;-71
2022/06/11 05:07:49;;;;;;;;;;;;;;;15.85;nan;100018.34;4957371;28;19926;-71
2022/06/11 05:10:16;;;;;;;;;;;;;;;15.89;nan;100024.19;4959111;28;19927;-71
2022/06/11 05:12:42;;;;;;;;;;;;;;;15.92;nan;100015.84;4958166;28;20255;-71
2022/06/11 05:15:07;;;;;;;;;;;;;;;16.03;nan;100020.00;4960240;28;19926;-71
2022/06/11 05:21:02;;;;;;;;;;;;;;;16.29;nan;100031.34;4959156;28;19925;-76
2022/06/11 05:23:28;;;;;;;;;;;;;;;16.41;nan;100032.66;4960953;28;19958;-76
2022/06/11 05:25:53;;;;;;;;;;;;;;;16.38;nan;100038.31;4963995;28;19961;-75
2022/06/11 05:28:30;;;;;;;;;;;;;;;16.09;nan;100037.97;4961519;28;20382;-76
2022/06/11 05:30:56;;;;;;;;;;;;;;;16.27;nan;100034.16;4964544;28;19926;-77
2022/06/11 05:33:22;;;;;;;;;;;;;;;16.37;nan;100034.00;4961068;28;19925;-74
2022/06/11 05:35:48;;;;;;;;;;;;;;;16.57;nan;100035.28;4955622;28;19973;-76
2022/06/11 05:38:17;;;;;;;;;;;;;;;16.71;nan;100036.47;4956206;28;20028;-73
2022/06/11 05:40:44;;;;;;;;;;;;;;;16.77;nan;100041.94;4611314;28;9999970;-75
2022/06/11 05:46:38;;;;;;;;;;;;;;;17.01;nan;100037.53;4955347;28;19964;-76
2022/06/11 05:49:06;;;;;;;;;;;;;;;17.18;nan;100049.81;4958101;28;19954;-75
2022/06/11 05:51:34;;;;;;;;;;;;;;;17.37;nan;100053.88;4957376;28;20290;-75
2022/06/11 05:54:01;;;;;;;;;;;;;;;17.45;nan;100051.16;4958068;28;19922;-76
2022/06/11 05:56:28;;;;;;;;;;;;;;;17.58;nan;100041.59;4958671;28;19919;-75
2022/06/11 05:58:57;;;;;;;;;;;;;;;17.66;nan;100047.91;4960068;28;19922;-74
2022/06/11 06:01:25;;;;;;;;;;;;;;;17.65;nan;100046.25;4957772;28;19989;-75
2022/06/11 06:04:28;;;;;;;;;;;;;;;17.67;nan;100049.59;4612247;28;10000846;-74
2022/06/11 06:06:53;;;;;;;;;;;;;;;17.72;nan;100049.88;4960317;28;19926;-76
2022/06/11 06:09:18;;;;;;;;;;;;;;;17.89;nan;100048.75;4963971;28;19932;-76
2022/06/11 06:11:44;;;;;;;;;;;;;;;18.06;nan;100050.31;4964462;28;20030;-76
2022/06/11 06:14:09;;;;;;;;;;;;;;;18.20;nan;100046.84;4966514;28;19969;-77
2022/06/11 06:16:34;;;;;;;;;;;;;;;18.33;nan;100049.72;4966866;28;19925;-77
2022/06/11 06:19:00;;;;;;;;;;;;;;;18.46;nan;100050.97;4964286;28;19919;-75
2022/06/11 06:21:28;;;;;;;;;;;;;;;18.54;nan;100053.56;4966307;28;19918;-75
2022/06/11 06:23:53;;;;;;;;;;;;;;;18.54;nan;100053.56;4966819;28;19953;-75
2022/06/11 06:26:20;;;;;;;;;;;;;;;18.68;nan;100055.44;4962156;28;19957;-76
2022/06/11 06:28:46;;;;;;;;;;;;;;;18.79;nan;100057.69;4964311;28;19972;-74
2022/06/11 06:31:12;;;;;;;;;;;;;;;18.91;nan;100060.75;4962752;28;20008;-76
2022/06/11 06:33:38;;;;;;;;;;;;;;;19.01;nan;100062.13;4960596;28;19919;-75
2022/06/11 06:36:05;;;;;;;;;;;;;;;18.95;nan;100062.84;4961752;28;19992;-75
2022/06/11 06:38:30;;;;;;;;;;;;;;;19.08;nan;100068.41;4964990;28;19922;-74
2022/06/11 06:40:56;;;;;;;;;;;;;;;19.22;nan;100074.72;4966467;28;19948;-77
2022/06/11 06:43:21;;;;;;;;;;;;;;;19.36;nan;100070.38;4964427;28;20012;-76
2022/06/11 06:45:48;;;;;;;;;;;;;;;19.42;nan;100069.66;4963908;28;19965;-77
2022/06/11 06:48:14;;;;;;;;;;;;;;;19.54;nan;100068.19;4961504;28;19969;-78
2022/06/11 06:50:40;;;;;;;;;;;;;;;19.65;nan;100070.38;4966336;28;20263;-75
2022/06/11 06:53:05;;;;;;;;;;;;;;;19.74;nan;100079.94;4964925;28;19925;-75
2022/06/11 06:55:31;;;;;;;;;;;;;;;19.82;nan;100074.47;4964213;28;19918;-74
2022/06/11 06:57:56;;;;;;;;;;;;;;;19.94;nan;100075.63;4963144;28;19925;-74
2022/06/11 07:00:22;;;;;;;;;;;;;;;20.07;nan;100079.47;4962868;28;20379;-76
2022/06/11 07:02:47;;;;;;;;;;;;;;;20.20;nan;100082.28;4966586;28;20287;-75
2022/06/11 07:05:13;;;;;;;;;;;;;;;20.32;nan;100078.09;4961428;28;19918;-75
2022/06/11 07:07:39;;;;;;;;;;;;;;;20.44;nan;100076.50;4961007;28;19950;-72
2022/06/11 07:10:05;;;;;;;;;;;;;;;20.54;nan;100077.03;4961013;28;19930;-73
2022/06/11 07:12:31;;;;;;;;;;;;;;;20.60;nan;100076.25;4963804;28;19922;-73
2022/06/11 07:14:57;;;;;;;;;;;;;;;20.71;nan;100073.03;4962411;28;19934;-75
2022/06/11 07:17:23;;;;;;;;;;;;;;;20.81;nan;100081.56;4617698;28;10000572;-75
2022/06/11 07:19:57;;;;;;;;;;;;;;;20.92;nan;100079.34;4960438;28;19922;-73
2022/06/11 07:22:25;;;;;;;;;;;;;;;21.00;nan;100082.72;4961243;28;20039;-76
2022/06/11 07:24:51;;;;;;;;;;;;;;;21.10;nan;100074.28;4960339;28;20373;-73
2022/06/11 07:27:19;;;;;;;;;;;;;;;21.19;nan;100071.28;4957454;28;19923;-83
2022/06/11 07:30:16;;;;;;;;;;;;;;;21.29;nan;100070.91;4962677;28;19918;-81
2022/06/11 07:32:46;;;;;;;;;;;;;;;21.38;nan;100074.28;4964414;28;19922;-80
2022/06/11 07:35:13;;;;;;;;;;;;;;;21.48;nan;100072.88;4962120;28;19918;-81
2022/06/11 07:37:40;;;;;;;;;;;;;;;21.60;nan;100071.25;4961747;28;20021;-77
2022/06/11 07:40:06;;;;;;;;;;;;;;;21.75;nan;100071.09;4963664;28;19922;-82
2022/06/11 07:42:31;;;;;;;;;;;;;;;21.86;nan;100066.97;4961979;28;19972;-82
2022/06/11 07:44:57;;;;;;;;;;;;;;;22.01;nan;100067.69;4617049;28;10000890;-87
2022/06/11 07:50:07;;;;;;;;;;;;;;;22.23;nan;100079.91;4958111;28;20012;-77
2022/06/11 07:52:32;;;;;;;;;;;;;;;22.27;nan;100070.38;4965271;28;19924;-78
2022/06/11 07:54:57;;;;;;;;;;;;;;;22.25;nan;100071.63;4961918;28;19913;-77
2022/06/11 07:57:23;;;;;;;;;;;;;;;22.27;nan;100072.22;4961999;28;20386;-76
2022/06/11 07:59:48;;;;;;;;;;;;;;;22.33;nan;100074.94;4964034;28;20283;-82
2022/06/11 08:02:14;;;;;;;;;;;;;;;22.43;nan;100070.00;4964280;28;19973;-78
2022/06/11 08:04:40;;;;;;;;;;;;;;;22.52;nan;100072.44;4962422;28;19918;-78
2022/06/11 08:07:05;;;;;;;;;;;;;;;22.58;nan;100079.69;4965073;28;19918;-83
2022/06/11 08:09:31;;;;;;;;;;;;;;;22.68;nan;100078.22;4961994;28;19918;-82
2022/06/11 08:11:56;;;;;;;;;;;;;;;22.75;nan;100072.88;4977448;28;19925;-83
2022/06/11 08:14:22;;;;;;;;;;;;;;;22.86;nan;100069.53;4960426;28;19922;-85
2022/06/11 08:16:47;;;;;;;;;;;;;;;22.96;nan;100067.28;4963153;28;19925;-80
2022/06/11 08:19:13;;;;;;;;;;;;;;;23.04;nan;100077.78;4960577;28;19984;-80
2022/06/11 08:21:38;;;;;;;;;;;;;;;23.10;nan;100082.34;4958988;28;19998;-80
2022/06/11 08:24:04;;;;;;;;;;;;;;;23.18;nan;100079.44;4960876;28;19918;-80
2022/06/11 08:26:29;;;;;;;;;;;;;;;23.28;nan;100079.78;4961120;28;19918;-83
2022/06/11 08:28:55;;;;;;;;;;;;;;;23.34;nan;100082.69;4965707;28;19924;-85
2022/06/11 08:31:20;;;;;;;;;;;;;;;23.32;nan;100080.22;4958005;28;19949;-84
2022/06/11 08:33:46;;;;;;;;;;;;;;;23.32;nan;100084.78;4959455;28;19926;-80
2022/06/11 08:36:11;;;;;;;;;;;;;;;23.36;nan;100080.59;4973362;28;19988;-78
2022/06/11 08:38:37;;;;;;;;;;;;;;;23.44;nan;100085.75;4962211;28;19941;-80
2022/06/11 08:41:02;;;;;;;;;;;;;;;23.48;nan;100078.94;4960323;28;20331;-80
2022/06/11 08:43:36;;;;;;;;;;;;;;;23.59;nan;100075.56;4961471;28;19926;-78
2022/06/11 08:46:07;;;;;;;;;;;;;;;23.65;nan;100082.78;4960434;28;19918;-80
2022/06/11 08:48:43;;;;;;;;;;;;;;;23.73;nan;100073.66;4959986;28;19918;-81
2022/06/11 08:51:09;;;;;;;;;;;;;;;23.83;nan;100077.53;4963879;28;19941;-80
2022/06/11 08:53:35;;;;;;;;;;;;;;;23.92;nan;100076.19;4961207;28;19918;-80
2022/06/11 08:56:01;;;;;;;;;;;;;;;23.93;nan;100077.03;4959803;28;19926;-81
2022/06/11 08:58:37;;;;;;;;;;;;;;;23.95;nan;100080.34;4963411;28;19918;-81
2022/06/11 09:01:04;;;;;;;;;;;;;;;24.02;nan;100081.97;4961116;28;19918;-80
2022/06/11 09:03:48;;;;;;;;;;;;;;;24.11;nan;100084.38;4961683;28;19918;-81
2022/06/11 09:06:25;;;;;;;;;;;;;;;24.17;nan;100072.72;4961538;28;19918;-81
2022/06/11 09:09:09;;;;;;;;;;;;;;;24.23;nan;100071.88;4993492;28;19914;-81
2022/06/11 09:11:45;;;;;;;;;;;;;;;24.30;nan;100073.50;4960878;28;20335;-81
2022/06/11 09:14:17;;;;;;;;;;;;;;;24.36;nan;100066.41;4964397;28;19929;-81
2022/06/11 09:16:53;;;;;;;;;;;;;;;24.43;nan;100064.47;4957690;28;20278;-80
2022/06/11 09:19:24;;;;;;;;;;;;;;;24.50;nan;100057.16;4961924;28;20669;-80
2022/06/11 09:22:09;;;;;;;;;;;;;;;24.59;nan;100063.91;4964147;28;19922;-77
2022/06/11 09:24:37;;;;;;;;;;;;;;;24.65;nan;100062.22;4958636;28;20367;-81
2022/06/11 09:27:23;;;;;;;;;;;;;;;24.68;nan;100065.28;4961154;28;20009;-80
2022/06/11 09:29:58;;;;;;;;;;;;;;;24.80;nan;100074.28;4963825;28;19922;-83
2022/06/11 09:32:44;;;;;;;;;;;;;;;24.92;nan;100070.91;4961498;28;20008;-74
2022/06/11 09:35:15;;;;;;;;;;;;;;;24.99;nan;100066.25;4962057;28;20076;-72
2022/06/11 09:37:52;;;;;;;;;;;;;;;25.06;nan;100067.00;4962201;28;19965;-74
2022/06/11 09:40:18;;;;;;;;;;;;;;;25.06;nan;100064.31;4961209;28;20020;-74
2022/06/11 09:42:49;;;;;;;;;;;;;;;25.10;nan;100058.22;4965511;28;20044;-73
2022/06/11 09:45:31;;;;;;;;;;;;;;;25.16;nan;100061.91;5000558;28;19923;-74
2022/06/11 09:48:18;;;;;;;;;;;;;;;25.07;nan;100063.25;4964623;28;20053;-75
2022/06/11 09:50:51;;;;;;;;;;;;;;;25.11;nan;100061.75;4967173;28;20385;-75
2022/06/11 09:53:40;;;;;;;;;;;;;;;25.15;nan;100062.97;4965703;28;19973;-73
2022/06/11 09:56:05;;;;;;;;;;;;;;;25.23;nan;100068.06;4964368;28;19918;-75
2022/06/11 09:58:33;;;;;;;;;;;;;;;25.33;nan;100062.94;4969816;28;19948;-75
2022/06/11 10:01:01;;;;;;;;;;;;;;;25.35;nan;100055.44;4966766;28;19922;-74
2022/06/11 10:03:48;;;;;;;;;;;;;;;25.36;nan;100062.50;4970209;28;19957;-75
2022/06/11 10:06:17;;;;;;;;;;;;;;;25.36;nan;100051.69;4966595;28;20418;-75
2022/06/11 10:08:48;;;;;;;;;;;;;;;25.35;nan;100044.66;4999442;28;19921;-74
2022/06/11 10:11:23;;;;;;;;;;;;;;;25.43;nan;100047.03;4968046;28;20025;-74
2022/06/11 10:16:55;;;;;;;;;;;;;;;25.49;nan;100046.13;4969146;28;19918;-74
2022/06/11 10:19:42;;;;;;;;;;;;;;;25.51;nan;100038.59;4967327;28;19934;-74
2022/06/11 10:22:29;;;;;;;;;;;;;;;25.60;nan;100031.88;4968308;28;19914;-73
2022/06/11 10:25:13;;;;;;;;;;;;;;;25.84;nan;100031.97;4982152;28;19923;-73
2022/06/11 10:27:41;;;;;;;;;;;;;;;25.77;nan;100034.75;4965837;28;19922;-73
2022/06/11 10:30:15;;;;;;;;;;;;;;;25.84;nan;100031.97;4969066;28;19964;-73
2022/06/11 10:32:43;;;;;;;;;;;;;;;25.99;nan;100035.06;4968164;28;19918;-72
2022/06/11 10:35:11;;;;;;;;;;;;;;;26.03;nan;100033.56;4968336;28;20064;-73
2022/06/11 10:37:41;;;;;;;;;;;;;;;26.07;nan;100034.72;4967280;28;19926;-74
2022/06/11 10:40:06;;;;;;;;;;;;;;;26.15;nan;100029.00;4968453;28;19917;-73
2022/06/11 10:42:37;;;;;;;;;;;;;;;26.24;nan;100022.22;4966805;28;19924;-73
2022/06/11 10:45:03;;;;;;;;;;;;;;;26.28;nan;100027.97;4969087;28;19918;-73
2022/06/11 10:47:36;;;;;;;;;;;;;;;26.31;nan;100028.34;4966759;28;19922;-73
2022/06/11 10:50:11;;;;;;;;;;;;;;;26.41;nan;100023.16;4963470;28;19918;-75
2022/06/11 10:52:51;;;;;;;;;;;;;;;26.48;nan;100020.34;4968779;28;19981;-74
2022/06/11 10:55:26;;;;;;;;;;;;;;;26.59;nan;100021.41;4963801;28;19919;-73
2022/06/11 10:57:52;;;;;;;;;;;;;;;26.56;nan;100016.47;4963725;28;19918;-74
2022/06/11 11:00:17;;;;;;;;;;;;;;;26.67;nan;100021.06;4965464;28;19933;-73
2022/06/11 11:02:48;;;;;;;;;;;;;;;26.74;nan;100010.94;4965619;28;19941;-74
2022/06/11 11:05:15;;;;;;;;;;;;;;;26.78;nan;100012.09;4964655;28;19966;-74
2022/06/11 11:07:40;;;;;;;;;;;;;;;26.80;nan;100018.91;4996365;28;19918;-74
2022/06/11 11:10:16;;;;;;;;;;;;;;;26.77;nan;100013.97;4963377;28;19961;-74
2022/06/11 11:12:42;;;;;;;;;;;;;;;26.73;nan;100009.28;4964862;28;19918;-76
2022/06/11 11:15:10;;;;;;;;;;;;;;;26.80;nan;100004.56;4963715;28;19957;-75
2022/06/11 11:17:35;;;;;;;;;;;;;;;26.82;nan;99997.84;4965731;28;19918;-74
2022/06/11 11:20:32;;;;;;;;;;;;;;;26.88;nan;100002.34;4963016;28;20448;-73
2022/06/11 11:23:05;;;;;;;;;;;;;;;26.98;nan;100000.91;4959338;28;19918;-74
2022/06/11 11:25:33;;;;;;;;;;;;;;;27.05;nan;99997.00;4959353;28;19961;-74
2022/06/11 11:27:59;;;;;;;;;;;;;;;27.19;nan;99997.56;4966147;28;20687;-75
2022/06/11 11:30:25;;;;;;;;;;;;;;;27.25;nan;99993.88;4962837;28;19918;-74
2022/06/11 11:32:50;;;;;;;;;;;;;;;27.27;nan;99987.16;4965591;28;20405;-75
2022/06/11 11:35:19;;;;;;;;;;;;;;;27.27;nan;99987.16;4963565;28;19918;-74
2022/06/11 11:37:45;;;;;;;;;;;;;;;27.32;nan;99991.03;4964729;28;19918;-75
2022/06/11 11:40:25;;;;;;;;;;;;;;;27.35;nan;99974.28;4963775;28;20007;-75
2022/06/11 11:42:54;;;;;;;;;;;;;;;27.44;nan;99980.97;4965058;28;19918;-74
2022/06/11 11:45:21;;;;;;;;;;;;;;;27.48;nan;99974.81;4962621;28;19933;-74
2022/06/11 11:47:48;;;;;;;;;;;;;;;27.64;nan;99974.06;4964694;28;20461;-74
2022/06/11 11:50:13;;;;;;;;;;;;;;;27.75;nan;99974.22;4963566;28;19964;-73
2022/06/11 11:52:59;;;;;;;;;;;;;;;27.89;nan;99981.00;4963027;28;19922;-74
2022/06/11 11:55:27;;;;;;;;;;;;;;;27.97;nan;99965.16;4974346;28;20057;-74
2022/06/11 11:58:00;;;;;;;;;;;;;;;28.11;nan;99969.16;4962094;28;19918;-74
2022/06/11 12:00:31;;;;;;;;;;;;;;;28.08;nan;99964.25;4965562;28;19918;-72
2022/06/11 12:03:00;;;;;;;;;;;;;;;28.16;nan;99967.66;4973075;28;20318;-74
2022/06/11 12:05:28;;;;;;;;;;;;;;;28.37;nan;99972.31;4965088;28;20005;-74
2022/06/11 12:07:56;;;;;;;;;;;;;;;28.53;nan;99966.03;4962219;28;19914;-75
2022/06/11 12:10:38;;;;;;;;;;;;;;;28.69;nan;99964.34;4963020;28;19925;-75
2022/06/11 12:13:19;;;;;;;;;;;;;;;28.89;nan;99959.22;4959044;28;19997;-75
2022/06/11 12:16:01;;;;;;;;;;;;;;;28.97;nan;99955.25;4963286;28;20022;-75
2022/06/11 12:18:28;;;;;;;;;;;;;;;29.16;nan;99953.84;4964882;28;19918;-74
2022/06/11 12:20:56;;;;;;;;;;;;;;;29.34;nan;99955.41;4961868;28;19961;-74
2022/06/11 12:23:22;;;;;;;;;;;;;;;29.61;nan;99957.06;4964423;28;19948;-76
2022/06/11 12:25:56;;;;;;;;;;;;;;;29.89;nan;99958.66;4962547;28;20016;-73
2022/06/11 12:28:24;;;;;;;;;;;;;;;30.21;nan;99950.53;4963951;28;19918;-75
2022/06/11 12:30:50;;;;;;;;;;;;;;;30.45;nan;99950.94;4961339;28;20005;-75
2022/06/11 12:33:16;;;;;;;;;;;;;;;30.63;nan;99947.00;4963060;28;20046;-74
2022/06/11 12:35:42;;;;;;;;;;;;;;;30.63;nan;99938.81;4963203;28;20335;-75
2022/06/11 12:38:07;;;;;;;;;;;;;;;30.60;nan;99939.34;4962130;28;19966;-74
2022/06/11 12:40:42;;;;;;;;;;;;;;;30.87;nan;99943.53;4964251;28;19918;-72
2022/06/11 12:43:31;;;;;;;;;;;;;;;31.20;nan;99936.91;4961401;28;19918;-74
2022/06/11 12:46:15;;;;;;;;;;;;;;;31.52;nan;99922.22;4956955;28;19918;-73
2022/06/11 12:48:46;;;;;;;;;;;;;;;31.72;nan;99927.72;4960267;28;19969;-73
2022/06/11 12:51:23;;;;;;;;;;;;;;;31.98;nan;99929.38;4962520;28;19980;-73
2022/06/11 12:53:57;;;;;;;;;;;;;;;31.99;nan;99920.06;4961759;28;20104;-73
2022/06/11 12:56:45;;;;;;;;;;;;;;;32.48;nan;99925.75;4963599;28;19922;-74
2022/06/11 12:59:24;;;;;;;;;;;;;;;32.59;nan;99921.06;4959881;28;19918;-74
2022/06/11 13:02:08;;;;;;;;;;;;;;;32.57;nan;99923.28;4961850;28;19924;-74
2022/06/11 13:04:36;;;;;;;;;;;;;;;33.31;nan;99927.88;4958799;28;19921;-74
2022/06/11 13:07:11;;;;;;;;;;;;;;;33.71;nan;99915.84;4963967;28;19945;-74
2022/06/11 13:09:56;;;;;;;;;;;;;;;34.08;nan;99920.75;4961948;28;19921;-74
2022/06/11 13:12:26;;;;;;;;;;;;;;;34.54;nan;99918.34;4961007;28;19918;-73
2022/06/11 13:15:15;;;;;;;;;;;;;;;35.01;nan;99912.03;4963315;28;19922;-74
2022/06/11 13:17:58;;;;;;;;;;;;;;;34.93;nan;99915.44;4959525;28;19926;-74
2022/06/11 13:20:23;;;;;;;;;;;;;;;34.80;nan;99913.44;4959706;28;20438;-74
2022/06/11 13:23:01;;;;;;;;;;;;;;;35.10;nan;99915.75;4961499;28;20010;-74
2022/06/11 13:25:32;;;;;;;;;;;;;;;35.36;nan;99908.00;4995038;28;20399;-73
2022/06/11 13:28:16;;;;;;;;;;;;;;;35.53;nan;99901.97;4956905;28;19922;-74
2022/06/11 13:30:52;;;;;;;;;;;;;;;35.10;nan;99896.56;4959883;28;20426;-73